createdAt,value
2022-11-15T00:02:09.902Z,4.36
2022-11-15T00:04:39.674Z,4.36
2022-11-15T00:07:14.908Z,4.38
2022-11-15T00:09:51.980Z,4.39
2022-11-15T00:12:22.113Z,4.61
2022-11-15T00:14:53.545Z,4.78
2022-11-15T00:17:23.654Z,4.81
2022-11-15T00:19:53.165Z,4.68
2022-11-15T00:22:22.707Z,4.77
2022-11-15T00:24:52.235Z,4.68
2022-11-15T00:27:21.917Z,4.77
2022-11-15T00:29:53.194Z,4.82
2022-11-15T00:32:22.722Z,4.78
2022-11-15T00:34:52.430Z,4.89
2022-11-15T00:37:22.177Z,4.93
2022-11-15T00:39:51.828Z,4.83
2022-11-15T00:42:21.259Z,4.87
2022-11-15T00:44:50.750Z,4.93
2022-11-15T00:47:21.764Z,4.98
2022-11-15T00:49:51.308Z,4.98
2022-11-15T00:52:21.006Z,4.97
2022-11-15T00:54:50.524Z,4.94
2022-11-15T00:57:20.052Z,5.02
2022-11-15T00:59:49.623Z,5.02
2022-11-15T01:02:19.262Z,5.02
2022-11-15T01:04:50.177Z,5.13
2022-11-15T01:07:19.777Z,5.06
2022-11-15T01:09:49.548Z,5.07
2022-11-15T01:12:19.705Z,5.21
2022-11-15T01:14:49.961Z,5.20
2022-11-15T01:17:19.947Z,5.19
2022-11-15T01:19:50.887Z,5.39
2022-11-15T01:22:20.444Z,5.47
2022-11-15T01:24:51.318Z,5.54
2022-11-15T01:27:20.932Z,5.54
2022-11-15T01:29:50.425Z,5.61
2022-11-15T01:32:19.970Z,5.67
2022-11-15T01:34:50.959Z,5.72
2022-11-15T01:37:20.461Z,5.72
2022-11-15T01:39:49.965Z,5.68
2022-11-15T01:42:20.296Z,5.56
2022-11-15T01:44:51.213Z,5.63
2022-11-15T01:47:22.729Z,5.67
2022-11-15T01:49:55.993Z,5.68
2022-11-15T01:52:27.162Z,5.83
2022-11-15T01:54:59.117Z,5.90
2022-11-15T01:57:28.723Z,5.95
2022-11-15T01:59:59.443Z,5.98
2022-11-15T02:02:29.053Z,6.00
2022-11-15T02:05:00.189Z,6.03
2022-11-15T02:07:30.484Z,6.05
2022-11-15T02:10:01.400Z,6.09
2022-11-15T02:12:32.631Z,6.08
2022-11-15T02:15:03.706Z,6.12
2022-11-15T02:17:50.847Z,6.10
2022-11-15T02:20:45.618Z,6.08
2022-11-15T02:23:32.945Z,6.07
2022-11-15T02:26:11.140Z,6.05
2022-11-15T02:28:47.661Z,6.14
2022-11-15T02:31:22.469Z,6.12
2022-11-15T02:33:55.401Z,6.14
2022-11-15T02:36:31.936Z,6.13
2022-11-15T02:39:11.628Z,6.11
2022-11-15T02:41:48.249Z,6.05
2022-11-15T02:44:19.213Z,6.03
2022-11-15T02:47:09.435Z,6.13
2022-11-15T02:49:39.792Z,6.15
2022-11-15T02:52:09.335Z,6.13
2022-11-15T02:54:38.988Z,6.17
2022-11-15T02:57:12.724Z,6.14
2022-11-15T03:00:06.237Z,6.04
2022-11-15T03:02:51.813Z,5.92
2022-11-15T03:05:26.698Z,5.96
2022-11-15T03:08:02.325Z,5.88
2022-11-15T03:10:38.270Z,5.82
2022-11-15T03:13:15.183Z,5.85
2022-11-15T03:15:49.872Z,5.79
2022-11-15T03:18:23.695Z,5.74
2022-11-15T03:20:54.277Z,5.73
2022-11-15T03:23:24.399Z,5.74
2022-11-15T03:25:55.732Z,5.67
2022-11-15T03:28:27.532Z,5.71
2022-11-15T03:30:58.334Z,5.67
2022-11-15T03:33:30.515Z,5.70
2022-11-15T03:36:00.854Z,5.75
2022-11-15T03:38:32.864Z,5.77
2022-11-15T03:41:03.678Z,5.84
2022-11-15T03:43:36.457Z,5.84
2022-11-15T03:46:09.467Z,5.77
2022-11-15T03:48:42.730Z,5.79
2022-11-15T03:51:13.293Z,5.73
2022-11-15T03:53:43.209Z,5.73
2022-11-15T03:56:12.737Z,5.77
2022-11-15T03:58:42.479Z,5.74
2022-11-15T04:01:12.122Z,5.72
2022-11-15T04:03:42.966Z,5.79
2022-11-15T04:06:12.711Z,5.81
2022-11-15T04:08:42.302Z,5.81
2022-11-15T04:11:11.802Z,5.83
2022-11-15T04:13:41.753Z,5.78
2022-11-15T04:16:11.896Z,5.88
2022-11-15T04:18:43.007Z,5.79
2022-11-15T04:21:29.811Z,5.67
2022-11-15T04:24:14.782Z,5.79
2022-11-15T04:26:44.352Z,5.84
2022-11-15T04:29:31.498Z,5.81
2022-11-15T04:32:01.155Z,5.83
2022-11-15T04:34:32.004Z,5.84
2022-11-15T04:37:17.205Z,5.90
2022-11-15T04:39:46.752Z,5.84
2022-11-15T04:42:16.343Z,5.84
2022-11-15T04:44:45.824Z,5.97
2022-11-15T04:47:15.344Z,5.95
2022-11-15T04:49:46.491Z,5.95
2022-11-15T04:52:16.326Z,5.98
2022-11-15T04:54:45.789Z,6.05
2022-11-15T04:57:16.021Z,6.02
2022-11-15T04:59:45.540Z,6.05
2022-11-15T05:02:15.104Z,6.07
2022-11-15T05:04:45.176Z,6.13
2022-11-15T05:07:16.730Z,6.12
2022-11-15T05:09:46.271Z,6.14
2022-11-15T05:12:16.428Z,6.14
2022-11-15T05:14:46.265Z,6.07
2022-11-15T05:17:16.267Z,6.15
2022-11-15T05:19:47.321Z,6.16
2022-11-15T05:22:17.011Z,6.11
2022-11-15T05:24:46.566Z,6.13
2022-11-15T05:27:16.185Z,6.17
2022-11-15T05:29:45.731Z,6.13
2022-11-15T05:32:15.375Z,6.17
2022-11-15T05:34:45.464Z,6.16
2022-11-15T05:37:17.828Z,6.22
2022-11-15T05:39:47.577Z,6.23
2022-11-15T05:42:17.474Z,6.22
2022-11-15T05:44:49.636Z,6.33
2022-11-15T05:47:22.213Z,6.26
2022-11-15T05:49:53.142Z,6.25
2022-11-15T05:52:25.865Z,6.34
2022-11-15T05:54:56.738Z,6.32
2022-11-15T05:57:26.329Z,6.35
2022-11-15T05:59:56.110Z,6.41
2022-11-15T06:02:25.936Z,6.44
2022-11-15T06:04:55.507Z,6.47
2022-11-15T06:07:26.452Z,6.46
2022-11-15T06:09:56.055Z,6.43
2022-11-15T06:12:25.889Z,6.52
2022-11-15T06:14:55.564Z,6.61
2022-11-15T06:17:25.139Z,6.71
2022-11-15T06:19:54.768Z,6.66
2022-11-15T06:22:24.359Z,6.70
2022-11-15T06:24:55.398Z,6.72
2022-11-15T06:27:24.976Z,6.73
2022-11-15T06:29:54.524Z,6.74
2022-11-15T06:32:24.134Z,6.77
2022-11-15T06:34:53.645Z,6.72
2022-11-15T06:37:23.236Z,6.80
2022-11-15T06:39:52.771Z,6.80
2022-11-15T06:42:23.952Z,6.82
2022-11-15T06:44:53.573Z,6.86
2022-11-15T06:47:23.165Z,6.82
2022-11-15T06:49:52.807Z,6.88
2022-11-15T06:52:22.788Z,6.90
2022-11-15T06:54:52.648Z,6.92
2022-11-15T06:57:22.366Z,6.95
2022-11-15T06:59:53.546Z,6.94
2022-11-15T07:02:23.130Z,7.00
2022-11-15T07:04:52.652Z,7.03
2022-11-15T07:07:22.183Z,7.08
2022-11-15T07:09:51.767Z,7.14
2022-11-15T07:12:21.985Z,7.20
2022-11-15T07:14:53.324Z,7.26
2022-11-15T07:17:23.426Z,7.32
2022-11-15T07:19:53.098Z,7.36
2022-11-15T07:22:22.642Z,7.38
2022-11-15T07:24:52.291Z,7.38
2022-11-15T07:27:21.913Z,7.42
2022-11-15T07:29:53.238Z,7.42
2022-11-15T07:32:23.037Z,7.44
2022-11-15T07:34:52.578Z,7.46
2022-11-15T07:37:22.182Z,7.49
2022-11-15T07:39:51.727Z,7.52
2022-11-15T07:42:38.756Z,7.55
2022-11-15T07:45:10.232Z,7.56
2022-11-15T07:47:39.824Z,7.58
2022-11-15T07:50:09.686Z,7.60
2022-11-15T07:52:39.451Z,7.63
2022-11-15T07:55:09.844Z,7.66
2022-11-15T07:57:39.430Z,7.71
2022-11-15T08:00:11.217Z,7.73
2022-11-15T08:02:41.405Z,7.76
2022-11-15T08:05:11.261Z,7.71
2022-11-15T08:07:41.198Z,7.76
2022-11-15T08:10:12.479Z,7.83
2022-11-15T08:12:43.866Z,7.82
2022-11-15T08:15:15.478Z,7.85
2022-11-15T08:17:45.020Z,7.90
2022-11-15T08:20:14.630Z,7.93
2022-11-15T08:22:44.239Z,7.95
2022-11-15T08:25:14.255Z,7.89
2022-11-15T08:27:43.890Z,7.89
2022-11-15T08:30:17.082Z,7.98
2022-11-15T08:32:46.727Z,8.06
2022-11-15T08:35:16.498Z,8.04
2022-11-15T08:37:46.104Z,8.12
2022-11-15T08:40:15.891Z,8.11
2022-11-15T08:42:47.820Z,8.14
2022-11-15T08:45:18.851Z,8.23
2022-11-15T08:47:53.980Z,8.28
2022-11-15T08:50:24.417Z,8.32
2022-11-15T08:52:54.052Z,8.34
2022-11-15T08:55:24.932Z,8.39
2022-11-15T08:57:54.628Z,8.41
2022-11-15T09:00:25.606Z,8.43
2022-11-15T09:02:55.110Z,8.45
2022-11-15T09:05:24.809Z,8.48
2022-11-15T09:07:54.992Z,8.46
2022-11-15T09:10:25.222Z,8.48
2022-11-15T09:12:55.513Z,8.51
2022-11-15T09:15:26.992Z,8.47
2022-11-15T09:17:59.842Z,8.47
2022-11-15T09:20:29.996Z,8.46
2022-11-15T09:23:01.922Z,8.50
2022-11-15T09:25:32.021Z,8.54
2022-11-15T09:28:02.850Z,8.57
2022-11-15T09:30:33.720Z,8.60
2022-11-15T09:33:08.059Z,8.63
2022-11-15T09:35:37.770Z,8.67
2022-11-15T09:38:07.233Z,8.67
2022-11-15T09:40:39.897Z,8.71
2022-11-15T09:43:26.418Z,8.77
2022-11-15T09:46:03.114Z,8.81
2022-11-15T09:48:40.806Z,8.81
2022-11-15T09:51:14.863Z,8.88
2022-11-15T09:56:41.869Z,9.00
2022-11-15T09:59:19.483Z,9.03
2022-11-15T10:01:56.118Z,9.12
2022-11-15T10:04:27.487Z,9.17
2022-11-15T10:07:00.254Z,9.19
2022-11-15T10:09:34.237Z,9.23
2022-11-15T10:12:04.509Z,9.24
2022-11-15T10:14:34.576Z,9.24
2022-11-15T10:17:19.509Z,9.27
2022-11-15T10:19:58.552Z,9.31
2022-11-15T10:22:37.477Z,9.36
2022-11-15T10:25:18.273Z,9.44
2022-11-15T10:27:53.262Z,9.49
2022-11-15T10:30:23.350Z,9.54
2022-11-15T10:32:52.893Z,9.54
2022-11-15T10:35:25.373Z,9.50
2022-11-15T10:38:06.205Z,9.53
2022-11-15T10:40:36.665Z,9.55
2022-11-15T10:43:07.824Z,9.60
2022-11-15T10:45:37.804Z,9.57
2022-11-15T10:48:26.007Z,9.59
2022-11-15T10:50:57.238Z,9.55
2022-11-15T10:53:31.641Z,9.63
2022-11-15T10:56:03.783Z,9.59
2022-11-15T10:58:36.437Z,9.66
2022-11-15T11:01:17.116Z,9.66
2022-11-15T11:03:47.921Z,9.67
2022-11-15T11:06:19.630Z,9.73
2022-11-15T11:08:56.877Z,9.78
2022-11-15T11:11:26.577Z,9.73
2022-11-15T11:13:56.609Z,9.78
2022-11-15T11:16:41.463Z,9.78
2022-11-15T11:19:17.843Z,9.76
2022-11-15T11:21:51.722Z,9.77
2022-11-15T11:24:26.710Z,9.78
2022-11-15T11:27:03.553Z,9.78
2022-11-15T11:29:39.303Z,9.77
2022-11-15T11:32:18.727Z,9.75
2022-11-15T11:34:54.556Z,9.76
2022-11-15T11:37:30.941Z,9.77
2022-11-15T11:40:10.934Z,9.78
2022-11-15T11:42:48.405Z,9.79
2022-11-15T11:45:22.472Z,9.77
2022-11-15T11:47:56.821Z,9.81
2022-11-15T11:50:28.285Z,9.80
2022-11-15T11:53:04.336Z,9.74
2022-11-15T11:55:37.448Z,9.74
2022-11-15T11:58:13.282Z,9.73
2022-11-15T12:00:44.148Z,9.73
2022-11-15T12:03:15.334Z,9.71
2022-11-15T12:05:46.881Z,9.71
2022-11-15T12:08:23.781Z,9.68
2022-11-15T12:10:56.560Z,9.66
2022-11-15T12:13:28.307Z,9.68
2022-11-15T12:16:09.054Z,9.68
2022-11-15T12:18:40.234Z,9.66
2022-11-15T12:21:15.392Z,9.65
2022-11-15T12:23:48.512Z,9.63
2022-11-15T12:26:21.109Z,9.65
2022-11-15T12:29:06.890Z,9.65
2022-11-15T12:31:39.576Z,9.63
2022-11-15T12:34:17.845Z,9.61
2022-11-15T12:36:47.311Z,9.64
2022-11-15T12:39:18.893Z,9.65
2022-11-15T12:42:12.199Z,9.65
2022-11-15T12:45:01.172Z,9.67
2022-11-15T12:47:30.948Z,9.67
2022-11-15T12:50:00.422Z,9.68
2022-11-15T12:52:29.998Z,9.67
2022-11-15T12:55:03.002Z,9.67
2022-11-15T12:57:37.625Z,9.69
2022-11-15T13:00:25.775Z,9.70
2022-11-15T13:03:18.563Z,9.73
2022-11-15T13:05:57.223Z,9.74
2022-11-15T13:08:44.938Z,9.76
2022-11-15T13:11:35.432Z,9.79
2022-11-15T13:14:26.979Z,9.81
2022-11-15T13:17:00.252Z,9.76
2022-11-15T13:19:30.812Z,9.77
2022-11-15T13:22:14.219Z,9.79
2022-11-15T13:24:43.826Z,9.81
2022-11-15T13:27:17.752Z,9.79
2022-11-15T13:29:48.800Z,9.78
2022-11-15T13:32:18.895Z,9.76
2022-11-15T13:34:52.379Z,9.79
2022-11-15T13:37:33.579Z,9.80
2022-11-15T13:40:18.010Z,9.80
2022-11-15T13:42:47.581Z,9.77
2022-11-15T13:45:20.733Z,9.78
2022-11-15T13:47:53.866Z,9.77
2022-11-15T13:50:25.324Z,9.78
2022-11-15T13:52:56.013Z,9.75
2022-11-15T13:55:26.122Z,9.70
2022-11-15T13:57:56.929Z,9.66
2022-11-15T14:00:29.536Z,9.65
2022-11-15T14:03:05.380Z,9.64
2022-11-15T14:05:35.142Z,9.64
2022-11-15T14:08:05.637Z,9.65
2022-11-15T14:10:35.876Z,9.66
2022-11-15T14:13:12.584Z,9.61
2022-11-15T14:15:44.098Z,9.55
2022-11-15T14:18:39.431Z,9.53
2022-11-15T14:21:09.897Z,9.51
2022-11-15T14:23:39.683Z,9.49
2022-11-15T14:26:13.601Z,9.49
2022-11-15T14:28:43.248Z,9.47
2022-11-15T14:31:14.905Z,9.49
2022-11-15T14:33:44.524Z,9.46
2022-11-15T14:36:14.886Z,9.43
2022-11-15T14:38:44.899Z,9.38
2022-11-15T14:41:20.166Z,9.36
2022-11-15T14:43:50.214Z,9.33
2022-11-15T14:46:21.293Z,9.27
2022-11-15T14:48:51.258Z,9.22
2022-11-15T14:51:21.390Z,9.20
2022-11-15T14:53:52.132Z,9.15
2022-11-15T14:56:21.732Z,9.09
2022-11-15T14:58:51.318Z,9.02
2022-11-15T15:01:24.164Z,8.98
2022-11-15T15:03:56.852Z,8.94
2022-11-15T15:06:26.850Z,8.85
2022-11-15T15:08:56.473Z,8.74
2022-11-15T15:11:27.619Z,8.71
2022-11-15T15:14:02.089Z,8.66
2022-11-15T15:16:33.499Z,8.66
2022-11-15T15:19:03.072Z,8.59
2022-11-15T15:21:37.231Z,8.53
2022-11-15T15:24:07.355Z,8.52
2022-11-15T15:26:37.612Z,8.51
2022-11-15T15:29:07.635Z,8.49
2022-11-15T15:31:38.558Z,8.48
2022-11-15T15:34:13.689Z,8.41
2022-11-15T15:36:46.413Z,8.37
2022-11-15T15:39:16.365Z,8.31
2022-11-15T15:41:46.122Z,8.18
2022-11-15T15:44:15.604Z,8.20
2022-11-15T15:46:46.670Z,8.17
2022-11-15T15:49:16.486Z,8.14
2022-11-15T15:51:45.978Z,8.08
2022-11-15T15:54:15.706Z,8.03
2022-11-15T15:56:45.267Z,8.02
2022-11-15T15:59:14.839Z,7.98
2022-11-15T16:01:44.536Z,7.93
2022-11-15T16:04:15.573Z,7.90
2022-11-15T16:06:46.570Z,7.84
2022-11-15T16:09:17.686Z,7.83
2022-11-15T16:11:48.922Z,7.79
2022-11-15T16:14:18.898Z,7.77
2022-11-15T16:16:49.025Z,7.77
2022-11-15T16:19:19.970Z,7.73
2022-11-15T16:21:49.585Z,7.71
2022-11-15T16:24:19.145Z,7.67
2022-11-15T16:26:49.188Z,7.64
2022-11-15T16:29:22.012Z,7.62
2022-11-15T16:31:51.916Z,7.54
2022-11-15T16:34:23.089Z,7.45
2022-11-15T16:36:53.325Z,7.54
2022-11-15T16:39:23.700Z,7.53
2022-11-15T16:41:53.418Z,7.51
2022-11-15T16:44:23.521Z,7.48
2022-11-15T16:46:53.239Z,7.42
2022-11-15T16:49:24.475Z,7.41
2022-11-15T16:51:54.409Z,7.31
2022-11-15T16:54:23.957Z,7.37
2022-11-15T16:56:56.825Z,7.38
2022-11-15T16:59:26.329Z,7.32
2022-11-15T17:01:56.101Z,7.28
2022-11-15T17:04:32.735Z,7.17
2022-11-15T17:07:02.391Z,7.13
2022-11-15T17:09:33.100Z,7.07
2022-11-15T17:12:04.420Z,7.09
2022-11-15T17:14:34.461Z,7.12
2022-11-15T17:17:04.584Z,6.93
2022-11-15T17:19:35.482Z,6.97
2022-11-15T17:22:05.081Z,6.83
2022-11-15T17:24:34.765Z,6.42
2022-11-15T17:27:04.454Z,6.73
2022-11-15T17:29:34.035Z,6.65
2022-11-15T17:32:06.947Z,6.69
2022-11-15T17:34:39.170Z,6.57
2022-11-15T17:37:08.720Z,6.51
2022-11-15T17:39:40.113Z,6.43
2022-11-15T17:42:09.945Z,6.31
2022-11-15T17:44:39.688Z,6.28
2022-11-15T17:47:09.494Z,6.19
2022-11-15T17:49:41.084Z,6.28
2022-11-15T17:52:10.548Z,6.21
2022-11-15T17:54:40.335Z,6.21
2022-11-15T17:57:10.135Z,6.21
2022-11-15T17:59:39.919Z,6.10
2022-11-15T18:02:10.480Z,6.17
2022-11-15T18:04:42.156Z,6.14
2022-11-15T18:07:12.626Z,6.00
2022-11-15T18:09:44.239Z,6.07
2022-11-15T18:12:13.896Z,5.97
2022-11-15T18:14:43.413Z,5.93
2022-11-15T18:17:13.050Z,5.92
2022-11-15T18:19:44.020Z,5.93
2022-11-15T18:22:13.618Z,5.98
2022-11-15T18:24:43.969Z,5.88
2022-11-15T18:27:14.840Z,5.74
2022-11-15T18:29:44.898Z,5.73
2022-11-15T18:32:17.720Z,5.85
2022-11-15T18:34:48.806Z,5.76
2022-11-15T18:37:18.387Z,5.73
2022-11-15T18:39:52.694Z,5.63
2022-11-15T18:42:23.367Z,5.67
2022-11-15T18:44:53.095Z,5.52
2022-11-15T18:47:22.727Z,5.53
2022-11-15T18:49:53.619Z,5.63
2022-11-15T18:52:23.085Z,5.61
2022-11-15T18:54:52.655Z,5.61
2022-11-15T18:57:22.244Z,5.63
2022-11-15T18:59:53.188Z,5.50
2022-11-15T19:02:22.945Z,5.52
2022-11-15T19:04:55.304Z,5.51
2022-11-15T19:07:24.904Z,5.56
2022-11-15T19:09:54.551Z,5.53
2022-11-15T19:12:24.663Z,5.40
2022-11-15T19:14:56.095Z,5.39
2022-11-15T19:17:26.513Z,5.39
2022-11-15T19:19:57.780Z,5.32
2022-11-15T19:22:27.299Z,5.26
2022-11-15T19:24:56.828Z,5.21
2022-11-15T19:27:26.560Z,5.28
2022-11-15T19:29:56.683Z,5.29
2022-11-15T19:32:26.424Z,5.23
2022-11-15T19:34:57.363Z,5.27
2022-11-15T19:37:27.150Z,5.13
2022-11-15T19:39:58.093Z,5.03
2022-11-15T19:42:27.733Z,4.98
2022-11-15T19:44:57.196Z,4.91
2022-11-15T19:47:28.444Z,5.06
2022-11-15T19:49:59.583Z,5.03
2022-11-15T19:52:29.150Z,5.01
2022-11-15T19:54:59.197Z,5.09
2022-11-15T19:57:28.769Z,5.06
2022-11-15T20:00:01.870Z,5.03
2022-11-15T20:02:34.337Z,5.15
2022-11-15T20:05:05.497Z,5.08
2022-11-15T20:07:35.184Z,4.93
2022-11-15T20:10:06.324Z,5.02
2022-11-15T20:12:36.709Z,4.99
2022-11-15T20:15:06.959Z,4.90
2022-11-15T20:17:37.355Z,4.91
2022-11-15T20:20:09.327Z,4.93
2022-11-15T20:22:39.225Z,4.92
2022-11-15T20:25:10.547Z,4.85
2022-11-15T20:27:40.148Z,4.88
2022-11-15T20:30:10.734Z,4.87
2022-11-15T20:32:40.275Z,4.80
2022-11-15T20:35:11.319Z,4.84
2022-11-15T20:37:40.941Z,4.83
2022-11-15T20:40:11.061Z,4.80
2022-11-15T20:42:41.184Z,4.86
2022-11-15T20:45:11.025Z,4.85
2022-11-15T20:47:41.917Z,4.73
2022-11-15T20:50:35.783Z,4.70
2022-11-15T20:53:02.385Z,4.73
2022-11-15T20:55:32.005Z,4.86
2022-11-15T20:58:01.912Z,4.80
2022-11-15T21:00:31.483Z,4.73
2022-11-15T21:03:01.350Z,4.83
2022-11-15T21:05:32.432Z,4.79
2022-11-15T21:08:02.143Z,4.75
2022-11-15T21:10:49.134Z,4.81
2022-11-15T21:13:19.358Z,4.80
2022-11-15T21:15:49.405Z,4.82
2022-11-15T21:18:19.290Z,4.81
2022-11-15T21:20:50.951Z,4.63
2022-11-15T21:23:21.834Z,4.66
2022-11-15T21:25:51.431Z,4.47
2022-11-15T21:28:21.184Z,4.58
2022-11-15T21:30:55.163Z,4.66
2022-11-15T21:33:27.407Z,4.41
2022-11-15T21:35:58.913Z,4.49
2022-11-15T21:38:29.132Z,4.31
2022-11-15T21:41:03.585Z,4.35
2022-11-15T21:43:33.303Z,4.49
2022-11-15T21:46:05.783Z,4.54
2022-11-15T21:48:36.407Z,4.35
2022-11-15T21:51:08.656Z,4.40
2022-11-15T21:53:38.264Z,4.46
2022-11-15T21:56:08.733Z,4.45
2022-11-15T21:58:39.540Z,4.47
2022-11-15T22:01:26.507Z,4.50
2022-11-15T22:03:56.255Z,4.28
2022-11-15T22:06:27.189Z,4.41
2022-11-15T22:08:56.729Z,4.39
2022-11-15T22:11:26.313Z,4.34
2022-11-15T22:13:56.344Z,4.33
2022-11-15T22:16:27.687Z,4.31
2022-11-15T22:18:57.686Z,4.29
2022-11-15T22:21:29.022Z,4.42
2022-11-15T22:23:58.650Z,4.26
2022-11-15T22:26:28.293Z,4.21
2022-11-15T22:28:58.358Z,4.28
2022-11-15T22:31:28.227Z,4.26
2022-11-15T22:33:58.078Z,4.28
2022-11-15T22:36:42.530Z,4.39
2022-11-15T22:39:18.761Z,4.29
2022-11-15T22:41:48.426Z,4.40
2022-11-15T22:44:18.125Z,4.41
2022-11-15T22:46:48.078Z,4.10
2022-11-15T22:49:17.704Z,4.22
2022-11-15T22:51:49.047Z,4.08
2022-11-15T22:54:18.680Z,3.99
2022-11-15T22:56:48.316Z,4.09
2022-11-15T22:59:18.122Z,4.05
2022-11-15T23:01:47.842Z,4.10
2022-11-15T23:04:17.475Z,4.19
2022-11-15T23:06:47.541Z,4.26
2022-11-15T23:09:18.610Z,4.00
2022-11-15T23:12:07.982Z,4.24
2022-11-15T23:14:39.442Z,4.28
2022-11-15T23:17:14.461Z,4.07
2022-11-15T23:19:44.127Z,4.26
2022-11-15T23:22:31.287Z,4.26
2022-11-15T23:25:02.320Z,4.05
2022-11-15T23:27:31.985Z,4.22
2022-11-15T23:30:19.144Z,4.17
2022-11-15T23:33:06.356Z,4.08
2022-11-15T23:35:36.088Z,4.20
2022-11-15T23:38:05.740Z,4.14
2022-11-15T23:40:36.796Z,4.17
2022-11-15T23:43:06.461Z,4.25
2022-11-15T23:45:38.958Z,4.31
2022-11-15T23:48:08.545Z,4.31
2022-11-15T23:50:38.448Z,4.25
2022-11-15T23:53:08.161Z,4.07
2022-11-15T23:55:39.239Z,3.80
2022-11-15T23:58:08.901Z,3.99
